sensor_id;sensor_type;location;lat;lon;timestamp;temperature;humidity
47521;DHT22;32291;52.010;4.446;2023-06-14T00:00:16;19.60;99.90
47521;DHT22;32291;52.010;4.446;2023-06-14T00:01:17;19.60;99.90
47521;DHT22;32291;52.010;4.446;2023-06-14T00:02:23;19.60;99.90
47521;DHT22;32291;52.010;4.446;2023-06-14T00:03:28;19.60;99.90
47521;DHT22;32291;52.010;4.446;2023-06-14T00:04:30;19.50;99.90
47521;DHT22;32291;52.010;4.446;2023-06-14T00:05:32;19.50;99.90
47521;DHT22;32291;52.010;4.446;2023-06-14T00:06:34;19.50;99.90
47521;DHT22;32291;52.010;4.446;2023-06-14T00:07:41;19.50;99.90
47521;DHT22;32291;52.010;4.446;2023-06-14T00:08:49;19.50;99.90
47521;DHT22;32291;52.010;4.446;2023-06-14T00:09:52;19.50;99.90
47521;DHT22;32291;52.010;4.446;2023-06-14T00:10:53;19.50;99.90
47521;DHT22;32291;52.010;4.446;2023-06-14T00:11:55;19.50;99.90
47521;DHT22;32291;52.010;4.446;2023-06-14T00:12:59;19.40;99.90
47521;DHT22;32291;52.010;4.446;2023-06-14T00:14:04;19.40;99.90
47521;DHT22;32291;52.010;4.446;2023-06-14T00:15:09;19.40;99.90
47521;DHT22;32291;52.010;4.446;2023-06-14T00:16:14;19.40;99.90
47521;DHT22;32291;52.010;4.446;2023-06-14T00:17:19;19.50;99.90
47521;DHT22;32291;52.010;4.446;2023-06-14T00:18:24;19.40;99.90
47521;DHT22;32291;52.010;4.446;2023-06-14T00:19:27;19.40;99.90
47521;DHT22;32291;52.010;4.446;2023-06-14T00:20:34;19.40;99.90
47521;DHT22;32291;52.010;4.446;2023-06-14T00:21:35;19.30;99.90
47521;DHT22;32291;52.010;4.446;2023-06-14T00:22:38;19.40;99.90
47521;DHT22;32291;52.010;4.446;2023-06-14T00:23:40;19.30;99.90
47521;DHT22;32291;52.010;4.446;2023-06-14T00:24:41;19.30;99.90
47521;DHT22;32291;52.010;4.446;2023-06-14T00:25:43;19.30;99.90
47521;DHT22;32291;52.010;4.446;2023-06-14T00:26:44;19.30;99.90
47521;DHT22;32291;52.010;4.446;2023-06-14T00:27:46;19.30;99.90
47521;DHT22;32291;52.010;4.446;2023-06-14T00:28:49;19.30;99.90
47521;DHT22;32291;52.010;4.446;2023-06-14T00:29:53;19.30;99.90
47521;DHT22;32291;52.010;4.446;2023-06-14T00:30:55;19.30;99.90
47521;DHT22;32291;52.010;4.446;2023-06-14T00:31:56;19.20;99.90
47521;DHT22;32291;52.010;4.446;2023-06-14T00:32:58;19.20;99.90
47521;DHT22;32291;52.010;4.446;2023-06-14T00:33:59;19.20;99.90
47521;DHT22;32291;52.010;4.446;2023-06-14T00:35:04;19.20;99.90
47521;DHT22;32291;52.010;4.446;2023-06-14T00:36:09;19.20;99.90
47521;DHT22;32291;52.010;4.446;2023-06-14T00:37:10;19.10;99.90
47521;DHT22;32291;52.010;4.446;2023-06-14T00:38:12;19.10;99.90
47521;DHT22;32291;52.010;4.446;2023-06-14T00:39:13;19.10;99.90
47521;DHT22;32291;52.010;4.446;2023-06-14T00:40:15;19.10;99.90
47521;DHT22;32291;52.010;4.446;2023-06-14T00:41:16;19.10;99.90
47521;DHT22;32291;52.010;4.446;2023-06-14T00:42:25;19.20;99.90
47521;DHT22;32291;52.010;4.446;2023-06-14T00:43:27;19.10;99.90
47521;DHT22;32291;52.010;4.446;2023-06-14T00:44:32;19.10;99.90
47521;DHT22;32291;52.010;4.446;2023-06-14T00:45:33;19.20;99.90
47521;DHT22;32291;52.010;4.446;2023-06-14T00:46:36;19.10;99.90
47521;DHT22;32291;52.010;4.446;2023-06-14T00:47:38;19.10;99.90
47521;DHT22;32291;52.010;4.446;2023-06-14T00:48:44;19.10;99.90
47521;DHT22;32291;52.010;4.446;2023-06-14T00:49:47;19.00;99.90
47521;DHT22;32291;52.010;4.446;2023-06-14T00:50:52;19.10;99.90
47521;DHT22;32291;52.010;4.446;2023-06-14T00:51:55;19.00;99.90
47521;DHT22;32291;52.010;4.446;2023-06-14T00:53:00;19.00;99.90
47521;DHT22;32291;52.010;4.446;2023-06-14T00:54:05;19.00;99.90
47521;DHT22;32291;52.010;4.446;2023-06-14T00:55:07;19.00;99.90
47521;DHT22;32291;52.010;4.446;2023-06-14T00:56:09;19.00;99.90
47521;DHT22;32291;52.010;4.446;2023-06-14T00:57:14;19.00;99.90
47521;DHT22;32291;52.010;4.446;2023-06-14T00:58:16;19.00;99.90
47521;DHT22;32291;52.010;4.446;2023-06-14T00:59:18;19.00;99.90
47521;DHT22;32291;52.010;4.446;2023-06-14T01:00:22;19.00;99.90
47521;DHT22;32291;52.010;4.446;2023-06-14T01:01:24;18.90;99.90
47521;DHT22;32291;52.010;4.446;2023-06-14T01:02:36;18.90;99.90
47521;DHT22;32291;52.010;4.446;2023-06-14T01:03:41;19.00;99.90
47521;DHT22;32291;52.010;4.446;2023-06-14T01:04:45;18.90;99.90
47521;DHT22;32291;52.010;4.446;2023-06-14T01:07:02;19.00;99.90
47521;DHT22;32291;52.010;4.446;2023-06-14T01:09:44;18.90;99.90
47521;DHT22;32291;52.010;4.446;2023-06-14T01:11:05;18.90;99.90
47521;DHT22;32291;52.010;4.446;2023-06-14T01:12:31;18.80;99.90
47521;DHT22;32291;52.010;4.446;2023-06-14T01:13:53;18.80;99.90
47521;DHT22;32291;52.010;4.446;2023-06-14T01:15:00;18.80;99.90
47521;DHT22;32291;52.010;4.446;2023-06-14T01:16:04;18.70;99.90
47521;DHT22;32291;52.010;4.446;2023-06-14T01:17:09;18.70;99.90
47521;DHT22;32291;52.010;4.446;2023-06-14T01:18:17;18.70;99.90
47521;DHT22;32291;52.010;4.446;2023-06-14T01:19:23;18.70;99.90
47521;DHT22;32291;52.010;4.446;2023-06-14T01:20:34;18.70;99.90
47521;DHT22;32291;52.010;4.446;2023-06-14T01:21:39;18.60;99.90
47521;DHT22;32291;52.010;4.446;2023-06-14T01:22:53;18.70;99.90
47521;DHT22;32291;52.010;4.446;2023-06-14T01:23:55;18.60;99.90
47521;DHT22;32291;52.010;4.446;2023-06-14T01:24:56;18.60;99.90
47521;DHT22;32291;52.010;4.446;2023-06-14T01:26:04;18.60;99.90
47521;DHT22;32291;52.010;4.446;2023-06-14T01:27:09;18.50;99.90
47521;DHT22;32291;52.010;4.446;2023-06-14T01:28:12;18.50;99.90
47521;DHT22;32291;52.010;4.446;2023-06-14T01:29:17;18.50;99.90
47521;DHT22;32291;52.010;4.446;2023-06-14T01:30:20;18.50;99.90
47521;DHT22;32291;52.010;4.446;2023-06-14T01:31:27;18.50;99.90
47521;DHT22;32291;52.010;4.446;2023-06-14T01:32:30;18.40;99.90
47521;DHT22;32291;52.010;4.446;2023-06-14T01:33:38;18.40;99.90
47521;DHT22;32291;52.010;4.446;2023-06-14T01:34:39;18.40;99.90
47521;DHT22;32291;52.010;4.446;2023-06-14T01:35:47;18.40;99.90
47521;DHT22;32291;52.010;4.446;2023-06-14T01:36:53;18.40;99.90
47521;DHT22;32291;52.010;4.446;2023-06-14T01:37:58;18.30;99.90
47521;DHT22;32291;52.010;4.446;2023-06-14T01:39:04;18.40;99.90
47521;DHT22;32291;52.010;4.446;2023-06-14T01:40:10;18.30;99.90
47521;DHT22;32291;52.010;4.446;2023-06-14T01:41:14;18.30;99.90
47521;DHT22;32291;52.010;4.446;2023-06-14T01:42:18;18.30;99.90
47521;DHT22;32291;52.010;4.446;2023-06-14T01:43:31;18.30;99.90
47521;DHT22;32291;52.010;4.446;2023-06-14T01:44:34;18.30;99.90
47521;DHT22;32291;52.010;4.446;2023-06-14T01:45:40;18.20;99.90
47521;DHT22;32291;52.010;4.446;2023-06-14T01:46:43;18.20;99.90
47521;DHT22;32291;52.010;4.446;2023-06-14T01:47:47;18.10;99.90
47521;DHT22;32291;52.010;4.446;2023-06-14T01:48:49;18.20;99.90
47521;DHT22;32291;52.010;4.446;2023-06-14T01:49:54;18.20;99.90
47521;DHT22;32291;52.010;4.446;2023-06-14T01:50:55;18.20;99.90
47521;DHT22;32291;52.010;4.446;2023-06-14T01:51:59;18.20;99.90
47521;DHT22;32291;52.010;4.446;2023-06-14T01:53:08;18.10;99.90
47521;DHT22;32291;52.010;4.446;2023-06-14T01:54:10;18.10;99.90
47521;DHT22;32291;52.010;4.446;2023-06-14T01:55:12;18.10;99.90
47521;DHT22;32291;52.010;4.446;2023-06-14T01:56:14;18.00;99.90
47521;DHT22;32291;52.010;4.446;2023-06-14T01:57:15;18.10;99.90
47521;DHT22;32291;52.010;4.446;2023-06-14T01:58:19;18.00;99.90
47521;DHT22;32291;52.010;4.446;2023-06-14T01:59:24;18.00;99.90
47521;DHT22;32291;52.010;4.446;2023-06-14T02:00:25;18.00;99.90
47521;DHT22;32291;52.010;4.446;2023-06-14T02:01:32;18.00;99.90
47521;DHT22;32291;52.010;4.446;2023-06-14T02:02:38;17.90;99.90
47521;DHT22;32291;52.010;4.446;2023-06-14T02:03:41;17.90;99.90
47521;DHT22;32291;52.010;4.446;2023-06-14T02:04:43;17.90;99.90
47521;DHT22;32291;52.010;4.446;2023-06-14T02:05:45;17.80;99.90
47521;DHT22;32291;52.010;4.446;2023-06-14T02:06:46;17.80;99.90
47521;DHT22;32291;52.010;4.446;2023-06-14T02:07:51;17.80;99.90
47521;DHT22;32291;52.010;4.446;2023-06-14T02:08:54;17.80;99.90
47521;DHT22;32291;52.010;4.446;2023-06-14T02:09:55;17.80;99.90
47521;DHT22;32291;52.010;4.446;2023-06-14T02:10:57;17.80;99.90
47521;DHT22;32291;52.010;4.446;2023-06-14T02:11:58;17.80;99.90
47521;DHT22;32291;52.010;4.446;2023-06-14T02:13:00;17.80;99.90
47521;DHT22;32291;52.010;4.446;2023-06-14T02:14:02;17.80;99.90
47521;DHT22;32291;52.010;4.446;2023-06-14T02:15:04;17.70;99.90
47521;DHT22;32291;52.010;4.446;2023-06-14T02:16:07;17.60;99.90
47521;DHT22;32291;52.010;4.446;2023-06-14T02:17:08;17.70;99.90
47521;DHT22;32291;52.010;4.446;2023-06-14T02:18:10;17.70;99.90
47521;DHT22;32291;52.010;4.446;2023-06-14T02:19:12;17.60;99.90
47521;DHT22;32291;52.010;4.446;2023-06-14T02:20:14;17.70;99.90
47521;DHT22;32291;52.010;4.446;2023-06-14T02:21:19;17.60;99.90
47521;DHT22;32291;52.010;4.446;2023-06-14T02:22:23;17.50;99.90
47521;DHT22;32291;52.010;4.446;2023-06-14T02:23:24;17.60;99.90
47521;DHT22;32291;52.010;4.446;2023-06-14T02:24:25;17.50;99.90
47521;DHT22;32291;52.010;4.446;2023-06-14T02:25:30;17.50;99.90
47521;DHT22;32291;52.010;4.446;2023-06-14T02:26:36;17.50;99.90
47521;DHT22;32291;52.010;4.446;2023-06-14T02:27:42;17.50;99.90
47521;DHT22;32291;52.010;4.446;2023-06-14T02:28:43;17.40;99.90
47521;DHT22;32291;52.010;4.446;2023-06-14T02:29:45;17.40;99.90
47521;DHT22;32291;52.010;4.446;2023-06-14T02:30:46;17.40;99.90
47521;DHT22;32291;52.010;4.446;2023-06-14T02:31:48;17.40;99.90
47521;DHT22;32291;52.010;4.446;2023-06-14T02:32:52;17.40;99.90
47521;DHT22;32291;52.010;4.446;2023-06-14T02:33:54;17.30;99.90
47521;DHT22;32291;52.010;4.446;2023-06-14T02:34:55;17.30;99.90
47521;DHT22;32291;52.010;4.446;2023-06-14T02:36:03;17.30;99.90
47521;DHT22;32291;52.010;4.446;2023-06-14T02:37:07;17.30;99.90
47521;DHT22;32291;52.010;4.446;2023-06-14T02:38:09;17.30;99.90
47521;DHT22;32291;52.010;4.446;2023-06-14T02:39:11;17.30;99.90
47521;DHT22;32291;52.010;4.446;2023-06-14T02:40:15;17.30;99.90
47521;DHT22;32291;52.010;4.446;2023-06-14T02:41:17;17.20;99.90
47521;DHT22;32291;52.010;4.446;2023-06-14T02:42:18;17.20;99.90
47521;DHT22;32291;52.010;4.446;2023-06-14T02:43:23;17.10;99.90
47521;DHT22;32291;52.010;4.446;2023-06-14T02:44:25;17.10;99.90
47521;DHT22;32291;52.010;4.446;2023-06-14T02:45:30;17.10;99.90
47521;DHT22;32291;52.010;4.446;2023-06-14T02:46:38;17.10;99.90
47521;DHT22;32291;52.010;4.446;2023-06-14T02:47:39;17.00;99.90
47521;DHT22;32291;52.010;4.446;2023-06-14T02:48:41;17.00;99.90
47521;DHT22;32291;52.010;4.446;2023-06-14T02:49:44;17.00;99.90
47521;DHT22;32291;52.010;4.446;2023-06-14T02:50:49;17.00;99.90
47521;DHT22;32291;52.010;4.446;2023-06-14T02:51:51;17.00;99.90
47521;DHT22;32291;52.010;4.446;2023-06-14T02:52:56;17.00;99.90
47521;DHT22;32291;52.010;4.446;2023-06-14T02:53:58;17.00;99.90
47521;DHT22;32291;52.010;4.446;2023-06-14T02:54:59;17.00;99.90
47521;DHT22;32291;52.010;4.446;2023-06-14T02:56:00;17.00;99.90
47521;DHT22;32291;52.010;4.446;2023-06-14T02:57:08;17.00;99.90
47521;DHT22;32291;52.010;4.446;2023-06-14T02:58:09;16.90;99.90
47521;DHT22;32291;52.010;4.446;2023-06-14T02:59:11;16.90;99.90
47521;DHT22;32291;52.010;4.446;2023-06-14T03:00:14;16.90;99.90
47521;DHT22;32291;52.010;4.446;2023-06-14T03:01:16;16.90;99.90
47521;DHT22;32291;52.010;4.446;2023-06-14T03:02:18;16.90;99.90
47521;DHT22;32291;52.010;4.446;2023-06-14T03:03:20;16.90;99.90
47521;DHT22;32291;52.010;4.446;2023-06-14T03:04:25;16.90;99.90
47521;DHT22;32291;52.010;4.446;2023-06-14T03:05:26;16.90;99.90
47521;DHT22;32291;52.010;4.446;2023-06-14T03:06:29;16.90;99.90
47521;DHT22;32291;52.010;4.446;2023-06-14T03:07:31;16.90;99.90
47521;DHT22;32291;52.010;4.446;2023-06-14T03:08:33;16.90;99.90
47521;DHT22;32291;52.010;4.446;2023-06-14T03:09:45;16.90;99.90
47521;DHT22;32291;52.010;4.446;2023-06-14T03:10:47;16.90;99.90
47521;DHT22;32291;52.010;4.446;2023-06-14T03:11:48;16.90;99.90
47521;DHT22;32291;52.010;4.446;2023-06-14T03:12:52;16.80;99.90
47521;DHT22;32291;52.010;4.446;2023-06-14T03:13:57;16.80;99.90
47521;DHT22;32291;52.010;4.446;2023-06-14T03:14:58;16.80;99.90
47521;DHT22;32291;52.010;4.446;2023-06-14T03:16:05;16.80;99.90
47521;DHT22;32291;52.010;4.446;2023-06-14T03:17:08;16.80;99.90
47521;DHT22;32291;52.010;4.446;2023-06-14T03:18:11;16.80;99.90
47521;DHT22;32291;52.010;4.446;2023-06-14T03:19:21;16.80;99.90
47521;DHT22;32291;52.010;4.446;2023-06-14T03:20:23;16.80;99.90
47521;DHT22;32291;52.010;4.446;2023-06-14T03:21:25;16.80;99.90
47521;DHT22;32291;52.010;4.446;2023-06-14T03:22:27;16.80;99.90
47521;DHT22;32291;52.010;4.446;2023-06-14T03:23:29;16.70;99.90
47521;DHT22;32291;52.010;4.446;2023-06-14T03:24:34;16.70;99.90
47521;DHT22;32291;52.010;4.446;2023-06-14T03:25:42;16.70;99.90
47521;DHT22;32291;52.010;4.446;2023-06-14T03:26:44;16.70;99.90
47521;DHT22;32291;52.010;4.446;2023-06-14T03:27:48;16.70;99.90
47521;DHT22;32291;52.010;4.446;2023-06-14T03:28:58;16.80;99.90
47521;DHT22;32291;52.010;4.446;2023-06-14T03:30:00;16.70;99.90
47521;DHT22;32291;52.010;4.446;2023-06-14T03:31:02;16.70;99.90
47521;DHT22;32291;52.010;4.446;2023-06-14T03:32:07;16.70;99.90
47521;DHT22;32291;52.010;4.446;2023-06-14T03:33:08;16.70;99.90
47521;DHT22;32291;52.010;4.446;2023-06-14T03:34:10;16.70;99.90
47521;DHT22;32291;52.010;4.446;2023-06-14T03:35:12;16.60;99.90
47521;DHT22;32291;52.010;4.446;2023-06-14T03:36:18;16.70;99.90
47521;DHT22;32291;52.010;4.446;2023-06-14T03:37:23;16.60;99.90
47521;DHT22;32291;52.010;4.446;2023-06-14T03:38:24;16.70;99.90
47521;DHT22;32291;52.010;4.446;2023-06-14T03:39:32;16.70;99.90
47521;DHT22;32291;52.010;4.446;2023-06-14T03:40:34;16.60;99.90
47521;DHT22;32291;52.010;4.446;2023-06-14T03:41:35;16.70;99.90
47521;DHT22;32291;52.010;4.446;2023-06-14T03:42:37;16.60;99.90
47521;DHT22;32291;52.010;4.446;2023-06-14T03:43:38;16.60;99.90
47521;DHT22;32291;52.010;4.446;2023-06-14T03:44:40;16.60;99.90
47521;DHT22;32291;52.010;4.446;2023-06-14T03:45:41;16.60;99.90
47521;DHT22;32291;52.010;4.446;2023-06-14T03:46:46;16.60;99.90
47521;DHT22;32291;52.010;4.446;2023-06-14T03:47:48;16.60;99.90
47521;DHT22;32291;52.010;4.446;2023-06-14T03:48:49;16.60;99.90
47521;DHT22;32291;52.010;4.446;2023-06-14T03:49:51;16.50;99.90
47521;DHT22;32291;52.010;4.446;2023-06-14T03:50:52;16.60;99.90
47521;DHT22;32291;52.010;4.446;2023-06-14T03:51:55;16.60;99.90
47521;DHT22;32291;52.010;4.446;2023-06-14T03:52:57;16.50;99.90
47521;DHT22;32291;52.010;4.446;2023-06-14T03:53:59;16.50;99.90
47521;DHT22;32291;52.010;4.446;2023-06-14T03:55:00;16.50;99.90
47521;DHT22;32291;52.010;4.446;2023-06-14T03:56:02;16.60;99.90
47521;DHT22;32291;52.010;4.446;2023-06-14T03:57:06;16.60;99.90
47521;DHT22;32291;52.010;4.446;2023-06-14T03:58:08;16.60;99.90
47521;DHT22;32291;52.010;4.446;2023-06-14T03:59:09;16.60;99.90
47521;DHT22;32291;52.010;4.446;2023-06-14T04:00:11;16.60;99.90
47521;DHT22;32291;52.010;4.446;2023-06-14T04:01:15;16.60;99.90
47521;DHT22;32291;52.010;4.446;2023-06-14T04:02:18;16.60;99.90
47521;DHT22;32291;52.010;4.446;2023-06-14T04:03:23;16.60;99.90
47521;DHT22;32291;52.010;4.446;2023-06-14T04:04:26;16.60;99.90
47521;DHT22;32291;52.010;4.446;2023-06-14T04:05:30;16.60;99.90
47521;DHT22;32291;52.010;4.446;2023-06-14T04:06:43;16.60;99.90
47521;DHT22;32291;52.010;4.446;2023-06-14T04:07:45;16.60;99.90
47521;DHT22;32291;52.010;4.446;2023-06-14T04:08:49;16.60;99.90
47521;DHT22;32291;52.010;4.446;2023-06-14T04:09:51;16.60;99.90
47521;DHT22;32291;52.010;4.446;2023-06-14T04:10:55;16.60;99.90
47521;DHT22;32291;52.010;4.446;2023-06-14T04:11:59;16.60;99.90
47521;DHT22;32291;52.010;4.446;2023-06-14T04:13:02;16.70;99.90
47521;DHT22;32291;52.010;4.446;2023-06-14T04:14:03;16.60;99.90
47521;DHT22;32291;52.010;4.446;2023-06-14T04:15:07;16.60;99.90
47521;DHT22;32291;52.010;4.446;2023-06-14T04:16:12;16.70;99.90
47521;DHT22;32291;52.010;4.446;2023-06-14T04:17:14;16.70;99.90
47521;DHT22;32291;52.010;4.446;2023-06-14T04:18:15;16.70;99.90
47521;DHT22;32291;52.010;4.446;2023-06-14T04:19:17;16.70;99.90
47521;DHT22;32291;52.010;4.446;2023-06-14T04:20:18;16.70;99.90
47521;DHT22;32291;52.010;4.446;2023-06-14T04:21:23;16.70;99.90
47521;DHT22;32291;52.010;4.446;2023-06-14T04:22:25;16.70;99.90
47521;DHT22;32291;52.010;4.446;2023-06-14T04:23:32;16.70;99.90
47521;DHT22;32291;52.010;4.446;2023-06-14T04:24:34;16.80;99.90
47521;DHT22;32291;52.010;4.446;2023-06-14T04:25:38;16.80;99.90
47521;DHT22;32291;52.010;4.446;2023-06-14T04:26:41;16.80;99.90
47521;DHT22;32291;52.010;4.446;2023-06-14T04:27:45;16.80;99.90
47521;DHT22;32291;52.010;4.446;2023-06-14T04:28:48;16.80;99.90
47521;DHT22;32291;52.010;4.446;2023-06-14T04:29:54;16.80;99.90
47521;DHT22;32291;52.010;4.446;2023-06-14T04:31:00;16.80;99.90
47521;DHT22;32291;52.010;4.446;2023-06-14T04:32:02;16.90;99.90
47521;DHT22;32291;52.010;4.446;2023-06-14T04:33:08;16.80;99.90
47521;DHT22;32291;52.010;4.446;2023-06-14T04:34:10;16.90;99.90
47521;DHT22;32291;52.010;4.446;2023-06-14T04:35:16;16.90;99.90
47521;DHT22;32291;52.010;4.446;2023-06-14T04:36:23;16.90;99.90
47521;DHT22;32291;52.010;4.446;2023-06-14T04:37:25;16.90;99.90
47521;DHT22;32291;52.010;4.446;2023-06-14T04:38:29;16.90;99.90
47521;DHT22;32291;52.010;4.446;2023-06-14T04:39:32;16.90;99.90
47521;DHT22;32291;52.010;4.446;2023-06-14T04:40:34;16.90;99.90
47521;DHT22;32291;52.010;4.446;2023-06-14T04:41:37;16.90;99.90
47521;DHT22;32291;52.010;4.446;2023-06-14T04:42:39;16.90;99.90
47521;DHT22;32291;52.010;4.446;2023-06-14T04:43:41;17.00;99.90
47521;DHT22;32291;52.010;4.446;2023-06-14T04:44:46;17.00;99.90
47521;DHT22;32291;52.010;4.446;2023-06-14T04:45:51;17.10;99.90
47521;DHT22;32291;52.010;4.446;2023-06-14T04:46:53;17.10;99.90
47521;DHT22;32291;52.010;4.446;2023-06-14T04:47:59;17.00;99.90
47521;DHT22;32291;52.010;4.446;2023-06-14T04:49:03;17.00;99.90
47521;DHT22;32291;52.010;4.446;2023-06-14T04:50:07;17.10;99.90
47521;DHT22;32291;52.010;4.446;2023-06-14T04:51:09;17.10;99.90
47521;DHT22;32291;52.010;4.446;2023-06-14T04:52:17;17.10;99.90
47521;DHT22;32291;52.010;4.446;2023-06-14T04:53:20;17.10;99.90
47521;DHT22;32291;52.010;4.446;2023-06-14T04:54:30;17.10;99.90
47521;DHT22;32291;52.010;4.446;2023-06-14T04:55:34;17.10;99.90
47521;DHT22;32291;52.010;4.446;2023-06-14T04:56:38;17.20;99.90
47521;DHT22;32291;52.010;4.446;2023-06-14T04:57:39;17.20;99.90
47521;DHT22;32291;52.010;4.446;2023-06-14T04:58:41;17.20;99.90
47521;DHT22;32291;52.010;4.446;2023-06-14T04:59:44;17.20;99.90
47521;DHT22;32291;52.010;4.446;2023-06-14T05:00:46;17.20;99.90
47521;DHT22;32291;52.010;4.446;2023-06-14T05:01:47;17.20;99.90
47521;DHT22;32291;52.010;4.446;2023-06-14T05:02:51;17.20;99.90
47521;DHT22;32291;52.010;4.446;2023-06-14T05:03:54;17.30;99.90
47521;DHT22;32291;52.010;4.446;2023-06-14T05:04:55;17.30;99.90
47521;DHT22;32291;52.010;4.446;2023-06-14T05:06:00;17.30;99.90
47521;DHT22;32291;52.010;4.446;2023-06-14T05:07:05;17.30;99.90
47521;DHT22;32291;52.010;4.446;2023-06-14T05:08:10;17.30;99.90
47521;DHT22;32291;52.010;4.446;2023-06-14T05:09:12;17.30;99.90
47521;DHT22;32291;52.010;4.446;2023-06-14T05:10:24;17.30;99.90
47521;DHT22;32291;52.010;4.446;2023-06-14T05:11:26;17.30;99.90
47521;DHT22;32291;52.010;4.446;2023-06-14T05:12:28;17.30;99.90
47521;DHT22;32291;52.010;4.446;2023-06-14T05:13:38;17.30;99.90
47521;DHT22;32291;52.010;4.446;2023-06-14T05:14:42;17.30;99.90
47521;DHT22;32291;52.010;4.446;2023-06-14T05:15:43;17.40;99.90
47521;DHT22;32291;52.010;4.446;2023-06-14T05:16:45;17.40;99.90
47521;DHT22;32291;52.010;4.446;2023-06-14T05:17:47;17.40;99.90
47521;DHT22;32291;52.010;4.446;2023-06-14T05:18:54;17.40;99.90
47521;DHT22;32291;52.010;4.446;2023-06-14T05:19:59;17.40;99.90
47521;DHT22;32291;52.010;4.446;2023-06-14T05:21:03;17.40;99.90
47521;DHT22;32291;52.010;4.446;2023-06-14T05:22:18;17.30;99.90
47521;DHT22;32291;52.010;4.446;2023-06-14T05:23:22;17.40;99.90
47521;DHT22;32291;52.010;4.446;2023-06-14T05:24:24;17.40;99.90
47521;DHT22;32291;52.010;4.446;2023-06-14T05:25:26;17.40;99.90
47521;DHT22;32291;52.010;4.446;2023-06-14T05:26:36;17.40;99.90
47521;DHT22;32291;52.010;4.446;2023-06-14T05:27:38;17.50;99.90
47521;DHT22;32291;52.010;4.446;2023-06-14T05:28:42;17.50;99.90
47521;DHT22;32291;52.010;4.446;2023-06-14T05:29:48;17.50;99.90
47521;DHT22;32291;52.010;4.446;2023-06-14T05:30:53;17.50;99.90
47521;DHT22;32291;52.010;4.446;2023-06-14T05:31:55;17.60;99.90
47521;DHT22;32291;52.010;4.446;2023-06-14T05:32:59;17.50;99.90
47521;DHT22;32291;52.010;4.446;2023-06-14T05:34:04;17.60;99.90
47521;DHT22;32291;52.010;4.446;2023-06-14T05:35:06;17.60;99.90
47521;DHT22;32291;52.010;4.446;2023-06-14T05:36:08;17.60;99.90
47521;DHT22;32291;52.010;4.446;2023-06-14T05:37:09;17.50;99.90
47521;DHT22;32291;52.010;4.446;2023-06-14T05:38:11;17.50;99.90
47521;DHT22;32291;52.010;4.446;2023-06-14T05:39:12;17.60;99.90
47521;DHT22;32291;52.010;4.446;2023-06-14T05:40:17;17.60;99.90
47521;DHT22;32291;52.010;4.446;2023-06-14T05:41:18;17.60;99.90
47521;DHT22;32291;52.010;4.446;2023-06-14T05:42:22;17.60;99.90
47521;DHT22;32291;52.010;4.446;2023-06-14T05:43:23;17.50;99.90
47521;DHT22;32291;52.010;4.446;2023-06-14T05:44:25;17.60;99.90
47521;DHT22;32291;52.010;4.446;2023-06-14T05:45:26;17.50;99.90
47521;DHT22;32291;52.010;4.446;2023-06-14T05:46:28;17.60;99.90
47521;DHT22;32291;52.010;4.446;2023-06-14T05:47:34;17.60;99.90
47521;DHT22;32291;52.010;4.446;2023-06-14T05:48:38;17.60;99.90
47521;DHT22;32291;52.010;4.446;2023-06-14T05:49:39;17.60;99.90
47521;DHT22;32291;52.010;4.446;2023-06-14T05:50:41;17.60;99.90
47521;DHT22;32291;52.010;4.446;2023-06-14T05:51:42;17.70;99.90
47521;DHT22;32291;52.010;4.446;2023-06-14T05:52:44;17.70;99.90
47521;DHT22;32291;52.010;4.446;2023-06-14T05:53:48;17.70;99.90
47521;DHT22;32291;52.010;4.446;2023-06-14T05:54:58;17.70;99.90
47521;DHT22;32291;52.010;4.446;2023-06-14T05:56:00;17.60;99.90
47521;DHT22;32291;52.010;4.446;2023-06-14T05:57:08;17.70;99.90
47521;DHT22;32291;52.010;4.446;2023-06-14T05:58:09;17.70;99.90
47521;DHT22;32291;52.010;4.446;2023-06-14T05:59:14;17.70;99.90
47521;DHT22;32291;52.010;4.446;2023-06-14T06:00:18;17.70;99.90
47521;DHT22;32291;52.010;4.446;2023-06-14T06:01:21;17.80;99.90
47521;DHT22;32291;52.010;4.446;2023-06-14T06:02:30;17.80;99.90
47521;DHT22;32291;52.010;4.446;2023-06-14T06:03:31;17.80;99.90
47521;DHT22;32291;52.010;4.446;2023-06-14T06:04:35;17.80;99.90
47521;DHT22;32291;52.010;4.446;2023-06-14T06:05:37;17.90;99.90
47521;DHT22;32291;52.010;4.446;2023-06-14T06:06:38;17.80;99.90
47521;DHT22;32291;52.010;4.446;2023-06-14T06:07:41;17.90;99.90
47521;DHT22;32291;52.010;4.446;2023-06-14T06:08:43;17.90;99.90
47521;DHT22;32291;52.010;4.446;2023-06-14T06:09:45;17.90;99.90
47521;DHT22;32291;52.010;4.446;2023-06-14T06:10:46;17.90;99.90
47521;DHT22;32291;52.010;4.446;2023-06-14T06:11:48;18.00;99.90
47521;DHT22;32291;52.010;4.446;2023-06-14T06:12:49;18.00;99.90
47521;DHT22;32291;52.010;4.446;2023-06-14T06:13:53;18.00;99.90
47521;DHT22;32291;52.010;4.446;2023-06-14T06:14:58;18.00;99.90
47521;DHT22;32291;52.010;4.446;2023-06-14T06:16:01;18.10;99.90
47521;DHT22;32291;52.010;4.446;2023-06-14T06:17:08;18.10;99.90
47521;DHT22;32291;52.010;4.446;2023-06-14T06:18:11;18.10;99.90
47521;DHT22;32291;52.010;4.446;2023-06-14T06:19:13;18.20;99.90
47521;DHT22;32291;52.010;4.446;2023-06-14T06:20:14;18.20;99.90
47521;DHT22;32291;52.010;4.446;2023-06-14T06:21:16;18.20;99.90
47521;DHT22;32291;52.010;4.446;2023-06-14T06:22:18;18.20;99.90
47521;DHT22;32291;52.010;4.446;2023-06-14T06:23:19;18.20;99.90
47521;DHT22;32291;52.010;4.446;2023-06-14T06:24:24;18.30;99.90
47521;DHT22;32291;52.010;4.446;2023-06-14T06:25:26;18.30;99.90
47521;DHT22;32291;52.010;4.446;2023-06-14T06:26:28;18.30;99.90
47521;DHT22;32291;52.010;4.446;2023-06-14T06:27:29;18.40;99.90
47521;DHT22;32291;52.010;4.446;2023-06-14T06:28:31;18.40;99.90
47521;DHT22;32291;52.010;4.446;2023-06-14T06:29:35;18.50;99.90
47521;DHT22;32291;52.010;4.446;2023-06-14T06:30:37;18.60;99.90
47521;DHT22;32291;52.010;4.446;2023-06-14T06:31:39;18.60;99.90
47521;DHT22;32291;52.010;4.446;2023-06-14T06:32:43;18.70;99.90
47521;DHT22;32291;52.010;4.446;2023-06-14T06:33:45;18.80;99.90
47521;DHT22;32291;52.010;4.446;2023-06-14T06:34:49;18.90;99.90
47521;DHT22;32291;52.010;4.446;2023-06-14T06:35:54;18.90;99.90
47521;DHT22;32291;52.010;4.446;2023-06-14T06:36:56;19.10;99.90
47521;DHT22;32291;52.010;4.446;2023-06-14T06:38:00;19.20;99.90
47521;DHT22;32291;52.010;4.446;2023-06-14T06:39:04;19.50;99.90
47521;DHT22;32291;52.010;4.446;2023-06-14T06:40:11;19.80;99.90
47521;DHT22;32291;52.010;4.446;2023-06-14T06:41:13;20.20;99.90
47521;DHT22;32291;52.010;4.446;2023-06-14T06:42:14;20.40;99.90
47521;DHT22;32291;52.010;4.446;2023-06-14T06:43:16;20.70;99.90
47521;DHT22;32291;52.010;4.446;2023-06-14T06:44:18;21.00;99.90